createdAt,value
2022-08-09T00:00:00.078Z,1.60
2022-08-09T00:02:31.068Z,1.45
2022-08-09T00:05:02.904Z,1.48
2022-08-09T00:07:48.090Z,1.92
2022-08-09T00:10:18.231Z,1.35
2022-08-09T00:12:52.857Z,1.95
2022-08-09T00:15:26.416Z,1.70
2022-08-09T00:18:11.123Z,1.83
2022-08-09T00:20:40.548Z,1.60
2022-08-09T00:23:56.446Z,1.63
2022-08-09T00:25:58.767Z,1.60
2022-08-09T00:28:34.493Z,1.80
2022-08-09T00:31:09.311Z,1.70
2022-08-09T00:33:55.576Z,1.33
2022-08-09T00:36:27.124Z,1.35
2022-08-09T00:38:57.931Z,1.25
2022-08-09T00:44:15.135Z,1.52
2022-08-09T00:44:25.500Z,1.38
2022-08-09T00:47:04.802Z,1.33
2022-08-09T00:49:36.797Z,1.20
2022-08-09T00:52:17.642Z,1.40
2022-08-09T00:54:48.458Z,1.30
2022-08-09T00:57:24.606Z,1.30
2022-08-09T01:00:02.856Z,1.08
2022-08-09T01:02:34.850Z,1.38
2022-08-09T01:05:14.080Z,1.25
2022-08-09T01:08:01.015Z,1.27
2022-08-09T01:10:38.214Z,1.10
2022-08-09T01:13:16.952Z,1.08
2022-08-09T01:15:52.194Z,1.55
2022-08-09T01:18:30.314Z,1.33
2022-08-09T01:21:17.957Z,1.38
2022-08-09T01:24:02.212Z,1.00
2022-08-09T01:26:54.276Z,1.00
2022-08-09T01:29:41.371Z,1.40
2022-08-09T01:32:30.995Z,1.17
2022-08-09T01:35:17.907Z,1.30
2022-08-09T01:38:07.843Z,1.30
2022-08-09T01:40:43.826Z,1.13
2022-08-09T01:43:15.195Z,1.75
2022-08-09T01:45:47.683Z,1.52
2022-08-09T01:48:17.666Z,1.47
2022-08-09T01:50:49.218Z,1.42
2022-08-09T01:53:29.099Z,1.40
2022-08-09T01:56:06.256Z,1.58
2022-08-09T01:58:37.537Z,1.42
2022-08-09T02:01:07.948Z,1.77
2022-08-09T02:03:37.841Z,1.15
2022-08-09T02:06:09.394Z,1.50
2022-08-09T02:08:58.053Z,1.50
2022-08-09T02:11:42.432Z,1.52
2022-08-09T02:14:25.590Z,1.70
2022-08-09T02:17:14.471Z,2.28
2022-08-09T02:19:45.875Z,1.27
2022-08-09T02:22:37.858Z,1.58
2022-08-09T02:25:15.391Z,1.10
2022-08-09T02:27:57.912Z,1.42
2022-08-09T02:33:03.268Z,1.10
2022-08-09T02:36:03.385Z,1.00
2022-08-09T02:38:32.126Z,1.48
2022-08-09T02:41:08.713Z,1.45
2022-08-09T02:43:42.462Z,1.13
2022-08-09T02:46:28.586Z,1.55
2022-08-09T02:49:02.831Z,1.30
2022-08-09T02:51:40.278Z,1.58
2022-08-09T02:54:12.468Z,1.50
2022-08-09T02:56:51.201Z,1.42
2022-08-09T02:59:26.408Z,1.50
2022-08-09T03:02:12.153Z,1.48
2022-08-09T03:04:50.719Z,1.40
2022-08-09T03:07:21.285Z,1.65
2022-08-09T03:09:56.406Z,1.65
2022-08-09T03:12:25.615Z,1.42
2022-08-09T03:14:55.047Z,1.60
2022-08-09T03:17:27.168Z,1.77
2022-08-09T03:20:05.180Z,1.80
2022-08-09T03:22:42.157Z,1.77
2022-08-09T03:25:26.211Z,1.38
2022-08-09T03:28:03.946Z,1.60
2022-08-09T03:30:36.777Z,1.40
2022-08-09T03:33:17.392Z,1.13
2022-08-09T03:36:12.370Z,1.58
2022-08-09T03:38:42.042Z,1.55
2022-08-09T03:41:15.029Z,1.73
2022-08-09T03:43:51.809Z,1.77
2022-08-09T03:46:33.286Z,1.45
2022-08-09T03:49:08.450Z,1.80
2022-08-09T03:51:57.171Z,1.60
2022-08-09T03:54:31.806Z,1.20
2022-08-09T03:57:04.237Z,1.98
2022-08-09T03:59:53.536Z,1.55
2022-08-09T04:02:26.612Z,1.60
2022-08-09T04:04:58.967Z,1.35
2022-08-09T04:07:47.726Z,1.65
2022-08-09T04:10:20.795Z,1.73
2022-08-09T04:12:56.727Z,1.35
2022-08-09T04:15:52.326Z,1.38
2022-08-09T04:18:16.439Z,1.45
2022-08-09T04:20:47.626Z,1.48
2022-08-09T04:23:16.707Z,1.38
2022-08-09T04:25:51.842Z,1.60
2022-08-09T04:28:31.488Z,1.27
2022-08-09T04:31:05.731Z,1.55
2022-08-09T04:33:47.191Z,1.60
2022-08-09T04:36:24.345Z,1.40
2022-08-09T04:38:52.876Z,1.60
2022-08-09T04:41:23.564Z,1.60
2022-08-09T04:44:05.588Z,1.17
2022-08-09T04:46:57.374Z,1.45
2022-08-09T04:49:40.639Z,1.35
2022-08-09T04:52:18.510Z,1.58
2022-08-09T04:54:52.229Z,1.58
2022-08-09T04:57:24.325Z,1.23
2022-08-09T04:59:55.166Z,1.10
2022-08-09T05:02:24.575Z,1.52
2022-08-09T05:04:56.487Z,1.45
2022-08-09T05:07:29.230Z,1.23
2022-08-09T05:10:01.989Z,1.45
2022-08-09T05:12:33.016Z,1.60
2022-08-09T05:15:03.992Z,1.55
2022-08-09T05:18:38.208Z,1.30
2022-08-09T05:20:29.834Z,1.20
2022-08-09T05:24:00.125Z,1.58
2022-08-09T05:25:50.946Z,1.10
2022-08-09T05:28:20.394Z,1.08
2022-08-09T05:30:51.633Z,1.23
2022-08-09T05:33:32.698Z,1.40
2022-08-09T05:36:02.258Z,1.75
2022-08-09T05:38:32.146Z,1.63
2022-08-09T05:41:00.727Z,1.38
2022-08-09T05:43:31.877Z,1.55
2022-08-09T05:46:01.054Z,1.52
2022-08-09T05:48:32.942Z,1.23
2022-08-09T05:51:43.141Z,1.60
2022-08-09T05:53:57.352Z,1.33
2022-08-09T05:56:28.370Z,1.80
2022-08-09T05:58:59.151Z,2.10
2022-08-09T06:01:34.081Z,1.42
2022-08-09T06:04:12.175Z,1.80
2022-08-09T06:06:46.781Z,1.85
2022-08-09T06:09:23.202Z,1.30
2022-08-09T06:12:08.906Z,1.92
2022-08-09T06:14:37.306Z,1.55
2022-08-09T06:17:09.811Z,1.52
2022-08-09T06:19:38.734Z,1.95
2022-08-09T06:22:15.296Z,1.85
2022-08-09T06:24:45.294Z,1.70
2022-08-09T06:27:15.437Z,2.10
2022-08-09T06:29:47.881Z,2.22
2022-08-09T06:33:00.185Z,2.43
2022-08-09T06:35:15.406Z,2.55
2022-08-09T06:37:52.806Z,2.05
2022-08-09T06:40:33.656Z,2.20
2022-08-09T06:43:02.528Z,2.42
2022-08-09T06:46:07.696Z,2.55
2022-08-09T06:48:30.297Z,2.20
2022-08-09T06:50:59.307Z,2.25
2022-08-09T06:53:38.030Z,2.67
2022-08-09T06:56:09.619Z,2.60
2022-08-09T07:00:47.357Z,2.50
2022-08-09T07:01:35.566Z,2.53
2022-08-09T07:04:19.930Z,2.50
2022-08-09T07:06:53.357Z,2.53
2022-08-09T07:09:56.123Z,2.55
2022-08-09T07:12:20.219Z,2.33
2022-08-09T07:14:50.875Z,2.92
2022-08-09T07:17:20.021Z,2.72
2022-08-09T07:19:55.166Z,3.15
2022-08-09T07:22:34.246Z,3.15
2022-08-09T07:25:05.095Z,3.67
2022-08-09T07:27:42.350Z,3.95
2022-08-09T07:30:13.474Z,3.97
2022-08-09T07:32:42.565Z,4.20
2022-08-09T07:35:14.711Z,3.67
2022-08-09T07:37:45.847Z,3.80
2022-08-09T07:40:17.364Z,3.70
2022-08-09T07:42:55.524Z,3.17
2022-08-09T07:45:38.053Z,3.40
2022-08-09T07:51:03.144Z,2.97
2022-08-09T07:54:06.725Z,3.03
2022-08-09T07:56:33.908Z,3.17
2022-08-09T07:59:06.380Z,2.85
2022-08-09T08:01:42.468Z,3.33
2022-08-09T08:04:10.874Z,3.55
2022-08-09T08:06:55.981Z,3.17
2022-08-09T08:09:38.532Z,2.58
2022-08-09T08:12:28.108Z,3.53
2022-08-09T08:14:59.647Z,3.03
2022-08-09T08:17:52.232Z,2.95
2022-08-09T08:20:16.203Z,2.40
2022-08-09T08:22:48.542Z,2.85
2022-08-09T08:25:16.965Z,3.45
2022-08-09T08:27:49.980Z,4.03
2022-08-09T08:30:19.873Z,3.67
2022-08-09T08:32:52.929Z,3.10
2022-08-09T08:35:22.895Z,3.40
2022-08-09T08:37:59.869Z,2.92
2022-08-09T08:40:33.976Z,3.13
2022-08-09T08:43:13.500Z,3.80
2022-08-09T08:45:53.225Z,3.33
2022-08-09T08:48:29.311Z,2.83
2022-08-09T08:51:00.097Z,3.80
2022-08-09T08:53:32.209Z,3.40
2022-08-09T08:56:06.347Z,3.05
2022-08-09T08:58:37.685Z,2.97
2022-08-09T09:01:08.614Z,3.00
2022-08-09T09:03:38.690Z,2.75
2022-08-09T09:06:07.902Z,2.45
2022-08-09T09:08:42.220Z,2.60
2022-08-09T09:11:17.408Z,2.65
2022-08-09T09:13:57.064Z,2.42
2022-08-09T09:16:32.428Z,2.28
2022-08-09T09:22:02.970Z,1.70
2022-08-09T09:24:35.239Z,1.83
2022-08-09T09:30:11.525Z,2.15
2022-08-09T09:32:34.450Z,1.95
2022-08-09T09:35:09.014Z,2.35
2022-08-09T09:37:40.531Z,1.80
2022-08-09T09:40:12.483Z,1.70
2022-08-09T09:42:45.975Z,1.83
2022-08-09T09:45:25.874Z,1.67
2022-08-09T09:48:04.235Z,1.98
2022-08-09T09:50:50.990Z,1.88
2022-08-09T09:53:43.664Z,1.83
2022-08-09T09:56:20.076Z,1.95
2022-08-09T09:58:58.926Z,1.58
2022-08-09T10:01:30.267Z,1.60
2022-08-09T10:04:22.820Z,1.65
2022-08-09T10:07:03.533Z,1.38
2022-08-09T10:09:48.970Z,2.45
2022-08-09T10:12:29.645Z,1.65
2022-08-09T10:15:50.750Z,1.80
2022-08-09T10:18:12.737Z,1.42
2022-08-09T10:20:45.056Z,1.60
2022-08-09T10:23:21.228Z,1.17
2022-08-09T10:26:07.626Z,1.65
2022-08-09T10:28:40.908Z,1.42
2022-08-09T10:34:10.917Z,1.65
2022-08-09T10:36:54.321Z,1.63
2022-08-09T10:39:27.017Z,1.30
2022-08-09T10:41:56.795Z,1.58
2022-08-09T10:44:30.405Z,1.25
2022-08-09T10:48:16.812Z,1.42
2022-08-09T10:50:27.029Z,1.42
2022-08-09T10:53:15.533Z,1.55
2022-08-09T10:55:58.252Z,1.02
2022-08-09T10:58:33.849Z,1.00
2022-08-09T11:03:06.578Z,1.17
2022-08-09T11:04:19.673Z,1.35
2022-08-09T11:07:57.008Z,1.15
2022-08-09T11:11:00.679Z,1.02
2022-08-09T11:13:54.305Z,1.20
2022-08-09T11:16:37.810Z,1.10
2022-08-09T11:19:10.351Z,1.30
2022-08-09T11:22:05.294Z,1.33
2022-08-09T11:25:05.458Z,1.40
2022-08-09T11:28:02.323Z,1.40
2022-08-09T11:30:37.572Z,1.50
2022-08-09T11:33:12.965Z,1.60
2022-08-09T11:35:49.649Z,1.55
2022-08-09T11:38:22.228Z,1.20
2022-08-09T11:40:53.026Z,1.35
2022-08-09T11:43:44.736Z,1.20
2022-08-09T11:46:12.886Z,1.40
2022-08-09T11:48:58.183Z,1.52
2022-08-09T11:53:16.695Z,1.40
2022-08-09T11:54:27.686Z,1.58
2022-08-09T11:57:47.668Z,1.65
2022-08-09T12:00:27.483Z,1.50
2022-08-09T12:02:57.562Z,1.40
2022-08-09T12:05:37.633Z,1.40
2022-08-09T12:08:12.392Z,1.58
2022-08-09T12:10:50.414Z,1.40
2022-08-09T12:14:08.320Z,1.55
2022-08-09T12:16:42.893Z,1.45
2022-08-09T12:19:13.747Z,1.40
2022-08-09T12:21:50.226Z,1.30
2022-08-09T12:24:25.039Z,1.50
2022-08-09T12:28:59.287Z,1.17
2022-08-09T12:30:01.833Z,1.60
2022-08-09T12:32:45.424Z,1.38
2022-08-09T12:35:19.265Z,1.30
2022-08-09T12:40:23.233Z,1.23
2022-08-09T12:42:54.327Z,1.00
2022-08-09T12:45:33.357Z,1.20
2022-08-09T12:48:20.191Z,1.40
2022-08-09T12:51:00.225Z,0.85
2022-08-09T12:53:38.743Z,1.00
2022-08-09T12:56:39.567Z,1.67
2022-08-09T12:59:10.907Z,1.25
2022-08-09T13:01:47.057Z,1.10
2022-08-09T13:04:35.810Z,1.17
2022-08-09T13:07:14.429Z,1.38
2022-08-09T13:09:43.292Z,1.20
2022-08-09T13:12:22.183Z,1.05
2022-08-09T13:14:54.235Z,0.88
2022-08-09T13:17:44.343Z,1.15
2022-08-09T13:20:18.918Z,1.05
2022-08-09T13:23:06.072Z,1.27
2022-08-09T13:25:42.434Z,1.13
2022-08-09T13:28:18.759Z,1.23
2022-08-09T13:32:13.456Z,1.10
2022-08-09T13:33:54.648Z,1.10
2022-08-09T13:36:40.510Z,1.00
2022-08-09T13:41:19.428Z,0.93
2022-08-09T13:42:03.297Z,1.00
2022-08-09T13:44:32.468Z,1.13
2022-08-09T13:47:29.092Z,1.30
2022-08-09T13:49:57.798Z,1.17
2022-08-09T13:52:31.956Z,0.77
2022-08-09T13:55:05.176Z,0.98
2022-08-09T13:57:39.676Z,0.90
2022-08-09T14:00:12.910Z,0.70
2022-08-09T14:03:02.936Z,0.77
2022-08-09T14:05:59.479Z,0.90
2022-08-09T14:08:21.597Z,0.90
2022-08-09T14:10:52.224Z,1.15
2022-08-09T14:14:17.362Z,1.27
2022-08-09T14:16:14.702Z,1.10
2022-08-09T14:18:45.683Z,1.23
2022-08-09T14:21:20.398Z,1.10
2022-08-09T14:23:55.439Z,0.90
2022-08-09T14:26:32.222Z,0.68
2022-08-09T14:29:03.531Z,0.90
2022-08-09T14:31:52.249Z,1.20
2022-08-09T14:34:27.325Z,0.90
2022-08-09T14:37:00.743Z,1.15
2022-08-09T14:39:45.776Z,0.82
2022-08-09T14:42:29.043Z,1.15
2022-08-09T14:46:38.969Z,0.95
2022-08-09T14:47:58.070Z,0.75
2022-08-09T14:50:29.375Z,0.82
2022-08-09T14:52:59.256Z,0.80
2022-08-09T14:55:32.605Z,1.00
2022-08-09T14:58:03.805Z,1.10
2022-08-09T15:00:35.167Z,1.08
2022-08-09T15:03:06.866Z,0.88
2022-08-09T15:05:36.664Z,1.33
2022-08-09T15:08:05.838Z,0.93
2022-08-09T15:10:36.715Z,0.90
2022-08-09T15:13:08.878Z,1.15
2022-08-09T15:15:39.242Z,1.10
2022-08-09T15:18:14.203Z,1.17
2022-08-09T15:21:58.256Z,1.17
2022-08-09T15:24:02.788Z,0.82
2022-08-09T15:26:31.129Z,1.02
2022-08-09T15:29:04.510Z,0.90
2022-08-09T15:31:40.853Z,1.00
2022-08-09T15:34:32.166Z,1.20
2022-08-09T15:37:01.154Z,0.90
2022-08-09T15:39:43.625Z,1.20
2022-08-09T15:42:22.912Z,0.95
2022-08-09T15:44:51.649Z,1.20
2022-08-09T15:47:22.818Z,1.10
2022-08-09T15:50:03.827Z,1.23
2022-08-09T15:52:35.500Z,0.88
2022-08-09T15:55:05.095Z,1.00
2022-08-09T15:57:44.310Z,1.05
2022-08-09T16:00:25.370Z,1.15
2022-08-09T16:02:56.845Z,1.30
2022-08-09T16:05:47.008Z,1.17
2022-08-09T16:08:30.977Z,1.10
2022-08-09T16:11:01.525Z,1.13
2022-08-09T16:14:03.839Z,1.02
2022-08-09T16:16:26.280Z,0.90
2022-08-09T16:18:56.748Z,0.95
2022-08-09T16:21:26.143Z,1.40
2022-08-09T16:23:58.425Z,1.10
2022-08-09T16:26:34.555Z,2.17
2022-08-09T16:29:11.319Z,1.25
2022-08-09T16:32:18.962Z,1.30
2022-08-09T16:34:55.427Z,1.40
2022-08-09T16:37:20.169Z,1.20
2022-08-09T16:40:09.984Z,1.55
2022-08-09T16:42:39.317Z,1.60
2022-08-09T16:45:18.695Z,1.38
2022-08-09T16:48:38.943Z,1.42
2022-08-09T16:50:38.665Z,1.30
2022-08-09T16:53:08.975Z,1.25
2022-08-09T16:55:58.338Z,1.05
2022-08-09T16:58:28.456Z,0.95
2022-08-09T17:01:05.674Z,1.30
2022-08-09T17:03:36.311Z,1.10
2022-08-09T17:06:28.369Z,1.02
2022-08-09T17:09:00.148Z,1.10
2022-08-09T17:11:41.730Z,1.20
2022-08-09T17:14:25.295Z,1.00
2022-08-09T17:16:59.931Z,1.08
2022-08-09T17:20:12.614Z,1.10
2022-08-09T17:22:24.978Z,1.30
2022-08-09T17:25:02.998Z,1.05
2022-08-09T17:27:32.396Z,1.30
2022-08-09T17:30:06.610Z,1.30
2022-08-09T17:32:38.627Z,1.15
2022-08-09T17:35:11.636Z,1.15
2022-08-09T17:38:11.070Z,1.30
2022-08-09T17:40:31.869Z,1.75
2022-08-09T17:43:33.019Z,1.27
2022-08-09T17:46:04.145Z,0.98
2022-08-09T17:48:38.573Z,0.93
2022-08-09T17:51:17.287Z,1.00
2022-08-09T17:53:53.456Z,1.17
2022-08-09T17:56:27.501Z,2.40
2022-08-09T17:58:59.958Z,1.10
2022-08-09T18:01:58.135Z,1.60
2022-08-09T18:04:20.685Z,0.82
2022-08-09T18:06:55.267Z,1.08
2022-08-09T18:09:35.792Z,1.00
2022-08-09T18:12:18.248Z,1.23
2022-08-09T18:14:54.608Z,0.98
2022-08-09T18:18:01.791Z,1.02
2022-08-09T18:20:55.738Z,1.30
2022-08-09T18:23:07.035Z,1.00
2022-08-09T18:25:50.425Z,1.35
2022-08-09T18:30:40.977Z,1.10
2022-08-09T18:31:10.533Z,1.10
2022-08-09T18:33:40.294Z,1.02
2022-08-09T18:36:14.270Z,1.05
2022-08-09T18:38:57.498Z,0.88
2022-08-09T18:41:29.847Z,0.82
2022-08-09T18:44:12.962Z,1.00
2022-08-09T18:46:50.842Z,1.02
2022-08-09T18:49:32.370Z,0.90
2022-08-09T18:52:13.348Z,1.20
2022-08-09T18:54:49.463Z,1.40
2022-08-09T18:57:22.498Z,0.88
2022-08-09T18:59:58.853Z,1.05
2022-08-09T19:02:31.993Z,1.02
2022-08-09T19:05:14.614Z,1.02
2022-08-09T19:08:03.791Z,1.05
2022-08-09T19:10:39.370Z,1.00
2022-08-09T19:13:22.424Z,1.05
2022-08-09T19:15:53.133Z,0.80
2022-08-09T19:18:32.916Z,0.90
2022-08-09T19:21:03.426Z,1.30
2022-08-09T19:24:32.014Z,1.00
2022-08-09T19:26:31.891Z,0.80
2022-08-09T19:29:03.184Z,1.20
2022-08-09T19:31:43.861Z,1.05
2022-08-09T19:34:21.582Z,0.85
2022-08-09T19:36:52.357Z,0.93
2022-08-09T19:39:42.980Z,1.00
2022-08-09T19:42:14.463Z,1.13
2022-08-09T19:44:43.245Z,0.85
2022-08-09T19:47:11.773Z,1.00
2022-08-09T19:50:07.315Z,0.90
2022-08-09T19:52:30.335Z,0.95
2022-08-09T19:55:02.609Z,0.88
2022-08-09T19:57:30.825Z,0.80
2022-08-09T20:00:06.850Z,0.88
2022-08-09T20:04:10.992Z,0.88
2022-08-09T20:05:27.506Z,0.68
2022-08-09T20:07:59.645Z,1.00
2022-08-09T20:10:36.923Z,0.98
2022-08-09T20:13:08.198Z,0.82
2022-08-09T20:16:34.928Z,0.90
2022-08-09T20:18:27.588Z,1.40
2022-08-09T20:20:57.008Z,1.10
2022-08-09T20:23:39.776Z,1.00
2022-08-09T20:26:13.132Z,0.60
2022-08-09T20:28:48.738Z,1.00
2022-08-09T20:31:18.328Z,0.85
2022-08-09T20:33:52.363Z,0.90
2022-08-09T20:36:27.224Z,0.82
2022-08-09T20:39:28.853Z,0.90
2022-08-09T20:41:46.597Z,0.80
2022-08-09T20:44:17.375Z,0.82
2022-08-09T20:46:55.994Z,0.82
2022-08-09T20:49:27.467Z,1.05
2022-08-09T20:51:56.825Z,0.80
2022-08-09T20:54:25.609Z,1.10
2022-08-09T20:56:58.401Z,0.70
2022-08-09T21:00:20.107Z,1.00
2022-08-09T21:02:18.358Z,0.80
2022-08-09T21:05:52.229Z,1.02
2022-08-09T21:07:40.293Z,0.65
2022-08-09T21:10:12.001Z,0.75
2022-08-09T21:15:34.899Z,1.33
2022-08-09T21:18:21.572Z,1.35
2022-08-09T21:20:54.630Z,0.90
2022-08-09T21:23:36.118Z,1.05
2022-08-09T21:26:15.546Z,0.60
2022-08-09T21:28:55.920Z,0.75
2022-08-09T21:31:48.811Z,0.90
2022-08-09T21:34:14.781Z,1.10
2022-08-09T21:36:56.805Z,0.85
2022-08-09T21:39:28.114Z,1.10
2022-08-09T21:42:11.156Z,1.08
2022-08-09T21:44:42.818Z,0.82
2022-08-09T21:47:17.538Z,1.10
2022-08-09T21:49:48.172Z,1.05
2022-08-09T21:52:20.539Z,1.52
2022-08-09T21:55:03.465Z,1.05
2022-08-09T21:57:39.437Z,0.77
2022-08-09T22:00:31.846Z,1.15
2022-08-09T22:03:04.854Z,1.10
2022-08-09T22:05:36.066Z,1.50
2022-08-09T22:08:13.447Z,1.10
2022-08-09T22:11:50.402Z,1.08
2022-08-09T22:13:35.427Z,0.98
2022-08-09T22:16:08.559Z,1.02
2022-08-09T22:18:38.271Z,1.30
2022-08-09T22:21:09.807Z,1.00
2022-08-09T22:23:59.415Z,1.33
2022-08-09T22:26:35.622Z,1.35
2022-08-09T22:29:09.159Z,1.20
2022-08-09T22:31:44.515Z,1.13
2022-08-09T22:34:25.687Z,1.40
2022-08-09T22:36:54.302Z,1.13
2022-08-09T22:39:56.413Z,1.23
2022-08-09T22:42:20.617Z,1.30
2022-08-09T22:48:04.751Z,1.00
2022-08-09T22:48:18.328Z,1.23
2022-08-09T22:50:30.777Z,1.55
2022-08-09T22:52:59.456Z,1.25
2022-08-09T22:58:32.187Z,1.27
2022-08-09T23:01:02.056Z,1.38
2022-08-09T23:04:03.445Z,1.40
2022-08-09T23:06:35.093Z,1.20
2022-08-09T23:09:04.873Z,1.27
2022-08-09T23:11:33.219Z,1.38
2022-08-09T23:14:02.861Z,1.55
2022-08-09T23:16:31.247Z,1.38
2022-08-09T23:19:00.714Z,1.63
2022-08-09T23:21:34.154Z,1.55
2022-08-09T23:24:06.371Z,1.63
2022-08-09T23:26:35.875Z,1.98
2022-08-09T23:29:05.186Z,1.48
2022-08-09T23:31:34.325Z,1.42
2022-08-09T23:34:04.337Z,1.75
2022-08-09T23:36:33.426Z,1.30
2022-08-09T23:39:01.855Z,1.63
2022-08-09T23:41:30.134Z,1.63
2022-08-09T23:43:59.625Z,1.60
2022-08-09T23:46:28.278Z,1.20
2022-08-09T23:48:56.777Z,1.65
2022-08-09T23:51:27.248Z,1.70
2022-08-09T23:54:02.034Z,1.23
2022-08-09T23:56:53.800Z,1.40
2022-08-09T23:59:21.276Z,1.52
